createdAt,value
2023-12-18T00:01:07.347Z,22.73
2023-12-18T00:03:34.310Z,17.80
2023-12-18T00:06:01.209Z,18.35
2023-12-18T00:08:28.008Z,22.58
2023-12-18T00:10:54.790Z,18.77
2023-12-18T00:13:21.772Z,13.90
2023-12-18T00:15:48.729Z,18.83
2023-12-18T00:18:16.033Z,18.58
2023-12-18T00:20:42.944Z,18.27
2023-12-18T00:23:09.756Z,15.43
2023-12-18T00:25:36.627Z,11.75
2023-12-18T00:28:03.741Z,14.40
2023-12-18T00:30:30.606Z,14.55
2023-12-18T00:32:57.611Z,13.15
2023-12-18T00:35:24.389Z,14.52
2023-12-18T00:37:51.161Z,14.48
2023-12-18T00:40:18.017Z,12.40
2023-12-18T00:42:44.807Z,9.20
2023-12-18T00:45:11.603Z,15.50
2023-12-18T00:47:38.561Z,15.02
2023-12-18T00:50:09.263Z,12.45
2023-12-18T00:52:36.367Z,14.18
2023-12-18T00:55:03.860Z,15.10
2023-12-18T00:57:30.688Z,14.55
2023-12-18T00:59:57.699Z,15.30
2023-12-18T01:02:24.631Z,13.82
2023-12-18T01:04:51.584Z,17.92
2023-12-18T01:07:18.432Z,21.75
2023-12-18T01:09:45.495Z,16.58
2023-12-18T01:12:12.409Z,27.50
2023-12-18T01:14:39.291Z,26.98
2023-12-18T01:17:06.420Z,21.25
2023-12-18T01:19:33.353Z,24.00
2023-12-18T01:22:00.243Z,23.45
2023-12-18T01:24:27.292Z,22.23
2023-12-18T01:26:54.157Z,24.35
2023-12-18T01:29:21.160Z,24.73
2023-12-18T01:31:48.071Z,16.58
2023-12-18T01:34:14.931Z,17.67
2023-12-18T01:36:41.925Z,16.55
2023-12-18T01:39:08.992Z,19.42
2023-12-18T01:41:35.844Z,11.70
2023-12-18T01:44:02.602Z,15.00
2023-12-18T01:46:30.331Z,15.02
2023-12-18T01:48:57.300Z,17.23
2023-12-18T01:51:24.264Z,16.13
2023-12-18T01:53:55.320Z,15.13
2023-12-18T01:56:29.430Z,17.20
2023-12-18T01:58:59.475Z,15.05
2023-12-18T02:01:31.059Z,23.63
2023-12-18T02:03:58.912Z,13.80
2023-12-18T02:06:27.044Z,13.00
2023-12-18T02:08:54.014Z,16.73
2023-12-18T02:11:20.970Z,17.75
2023-12-18T02:13:47.978Z,15.85
2023-12-18T02:16:14.875Z,13.20
2023-12-18T02:18:47.036Z,14.70
2023-12-18T02:21:23.041Z,18.48
2023-12-18T02:23:51.141Z,17.67
2023-12-18T02:26:18.589Z,18.35
2023-12-18T02:28:45.649Z,16.20
2023-12-18T02:31:16.394Z,16.52
2023-12-18T02:33:43.405Z,14.63
2023-12-18T02:36:10.355Z,19.27
2023-12-18T02:38:37.903Z,16.23
2023-12-18T02:41:04.728Z,16.73
2023-12-18T02:43:31.602Z,18.83
2023-12-18T02:45:58.558Z,18.67
2023-12-18T02:48:25.483Z,17.70
2023-12-18T02:50:52.299Z,21.40
2023-12-18T02:53:19.774Z,18.02
2023-12-18T02:55:46.647Z,19.10
2023-12-18T02:58:13.522Z,21.70
2023-12-18T03:00:40.561Z,25.92
2023-12-18T03:03:10.316Z,23.35
2023-12-18T03:05:37.328Z,21.45
2023-12-18T03:08:04.495Z,19.45
2023-12-18T03:10:31.437Z,19.92
2023-12-18T03:12:58.183Z,19.92
2023-12-18T03:15:25.206Z,24.90
2023-12-18T03:17:52.257Z,20.38
2023-12-18T03:20:19.129Z,16.52
2023-12-18T03:22:46.134Z,16.80
2023-12-18T03:25:13.030Z,16.52
2023-12-18T03:27:40.038Z,17.45
2023-12-18T03:30:07.684Z,16.90
2023-12-18T03:32:34.563Z,21.05
2023-12-18T03:35:01.379Z,20.27
2023-12-18T03:37:28.362Z,17.33
2023-12-18T03:39:55.218Z,17.85
2023-12-18T03:42:22.610Z,16.52
2023-12-18T03:44:49.544Z,21.88
2023-12-18T03:47:16.327Z,18.80
2023-12-18T03:49:43.176Z,20.75
2023-12-18T03:52:10.198Z,20.55
2023-12-18T03:54:36.965Z,20.73
2023-12-18T03:57:03.915Z,25.13
2023-12-18T03:59:30.763Z,20.50
2023-12-18T04:01:57.532Z,24.63
2023-12-18T04:04:24.344Z,21.65
2023-12-18T04:06:51.361Z,22.90
2023-12-18T04:09:18.180Z,17.95
2023-12-18T04:11:45.001Z,20.63
2023-12-18T04:14:11.911Z,19.40
2023-12-18T04:16:38.665Z,22.77
2023-12-18T04:19:06.483Z,22.20
2023-12-18T04:21:33.620Z,19.52
2023-12-18T04:24:00.532Z,19.88
2023-12-18T04:26:27.416Z,20.17
2023-12-18T04:28:54.291Z,19.67
2023-12-18T04:31:21.924Z,17.95
2023-12-18T04:33:49.021Z,20.42
2023-12-18T04:36:16.042Z,22.00
2023-12-18T04:38:44.574Z,21.23
2023-12-18T04:41:21.578Z,20.27
2023-12-18T04:43:49.178Z,21.70
2023-12-18T04:46:16.373Z,18.55
2023-12-18T04:48:43.544Z,20.27
2023-12-18T04:51:10.675Z,20.35
2023-12-18T04:53:37.545Z,19.23
2023-12-18T04:56:05.845Z,23.73
2023-12-18T04:58:35.651Z,18.77
2023-12-18T05:01:02.920Z,24.25
2023-12-18T05:03:30.021Z,23.17
2023-12-18T05:05:56.905Z,21.42
2023-12-18T05:08:23.742Z,29.10
2023-12-18T05:10:50.663Z,23.75
2023-12-18T05:13:17.508Z,29.70
2023-12-18T05:15:44.403Z,34.42
2023-12-18T05:18:11.588Z,32.00
2023-12-18T05:20:38.579Z,37.67
2023-12-18T05:23:05.433Z,40.70
2023-12-18T05:25:32.274Z,34.97
2023-12-18T05:27:59.038Z,27.75
2023-12-18T05:30:25.906Z,34.63
2023-12-18T05:32:52.942Z,29.00
2023-12-18T05:35:19.973Z,35.53
2023-12-18T05:37:46.849Z,39.25
2023-12-18T05:40:13.740Z,29.27
2023-12-18T05:42:40.869Z,39.30
2023-12-18T05:45:09.128Z,38.17
2023-12-18T05:47:36.206Z,40.47
2023-12-18T05:50:03.243Z,43.35
2023-12-18T05:52:30.048Z,37.25
2023-12-18T05:54:56.917Z,42.92
2023-12-18T05:57:23.700Z,48.67
2023-12-18T05:59:50.495Z,44.00
2023-12-18T06:02:17.480Z,42.00
2023-12-18T06:04:45.211Z,38.55
2023-12-18T06:07:12.295Z,34.33
2023-12-18T06:09:40.078Z,32.30
2023-12-18T06:12:07.631Z,34.03
2023-12-18T06:14:34.452Z,29.80
2023-12-18T06:17:01.359Z,32.13
2023-12-18T06:19:28.283Z,23.60
2023-12-18T06:21:55.284Z,25.52
2023-12-18T06:24:22.387Z,27.80
2023-12-18T06:26:49.316Z,40.03
2023-12-18T06:29:16.138Z,25.88
2023-12-18T06:31:43.110Z,24.63
2023-12-18T06:34:11.681Z,30.67
2023-12-18T06:36:39.242Z,25.75
2023-12-18T06:39:06.308Z,25.25
2023-12-18T06:41:33.182Z,33.60
2023-12-18T06:43:59.958Z,30.65
2023-12-18T06:46:26.882Z,33.08
2023-12-18T06:48:53.758Z,39.75
2023-12-18T06:51:20.634Z,27.48
2023-12-18T06:53:47.546Z,31.83
2023-12-18T06:56:14.349Z,35.08
2023-12-18T06:58:41.126Z,33.22
2023-12-18T07:01:08.279Z,28.63
2023-12-18T07:03:35.787Z,25.40
2023-12-18T07:06:03.082Z,22.20
2023-12-18T07:08:30.563Z,26.95
2023-12-18T07:10:58.548Z,25.58
2023-12-18T07:13:26.111Z,23.80
2023-12-18T07:15:53.344Z,22.02
2023-12-18T07:18:20.300Z,23.63
2023-12-18T07:20:47.394Z,25.25
2023-12-18T07:23:14.281Z,27.50
2023-12-18T07:25:41.056Z,21.05
2023-12-18T07:28:10.660Z,26.85
2023-12-18T07:30:40.252Z,23.23
2023-12-18T07:33:07.778Z,22.92
2023-12-18T07:35:34.769Z,23.42
2023-12-18T07:38:01.683Z,20.95
2023-12-18T07:40:28.486Z,24.95
2023-12-18T07:42:55.371Z,20.00
2023-12-18T07:45:22.298Z,22.83
2023-12-18T07:47:49.265Z,25.52
2023-12-18T07:50:16.066Z,24.10
2023-12-18T07:52:44.996Z,19.75
2023-12-18T07:55:12.003Z,23.33
2023-12-18T07:57:38.922Z,20.50
2023-12-18T08:00:06.468Z,23.83
2023-12-18T08:02:33.267Z,25.60
2023-12-18T08:05:00.159Z,28.23
2023-12-18T08:07:27.120Z,22.42
2023-12-18T08:09:55.004Z,26.02
2023-12-18T08:12:21.802Z,24.42
2023-12-18T08:14:48.672Z,31.90
2023-12-18T08:17:16.556Z,25.73
2023-12-18T08:19:50.179Z,25.00
2023-12-18T08:22:17.497Z,22.08
2023-12-18T08:24:44.626Z,26.90
2023-12-18T08:27:12.044Z,28.88
2023-12-18T08:29:42.215Z,24.48
2023-12-18T08:32:09.029Z,22.10
2023-12-18T08:34:36.331Z,24.63
2023-12-18T08:37:05.042Z,27.65
2023-12-18T08:39:32.061Z,29.00
2023-12-18T08:41:59.427Z,20.25
2023-12-18T08:44:26.197Z,26.63
2023-12-18T08:46:52.949Z,24.02
2023-12-18T08:49:19.938Z,27.63
2023-12-18T08:51:46.768Z,23.80
2023-12-18T08:54:13.717Z,26.23
2023-12-18T08:56:40.594Z,25.00
2023-12-18T08:59:07.374Z,25.02
2023-12-18T09:01:39.336Z,35.63
2023-12-18T09:04:07.689Z,25.80
2023-12-18T09:06:38.266Z,26.80
2023-12-18T09:09:05.242Z,29.73
2023-12-18T09:11:34.944Z,22.13
2023-12-18T09:14:04.718Z,28.33
2023-12-18T09:16:32.120Z,23.67
2023-12-18T09:18:59.135Z,26.63
2023-12-18T09:21:28.822Z,27.35
2023-12-18T09:24:14.072Z,32.92
2023-12-18T09:26:41.062Z,27.80
2023-12-18T09:29:07.848Z,28.10
2023-12-18T09:31:34.794Z,28.55
2023-12-18T09:34:02.318Z,23.95
2023-12-18T09:36:29.273Z,32.20
2023-12-18T09:38:56.209Z,31.77
2023-12-18T09:41:24.440Z,30.90
2023-12-18T09:43:55.297Z,29.45
2023-12-18T09:46:26.214Z,32.00
2023-12-18T09:48:54.502Z,32.63
2023-12-18T09:51:23.216Z,28.33
2023-12-18T09:53:51.624Z,36.42
2023-12-18T09:56:21.330Z,28.55
2023-12-18T09:58:49.078Z,33.15
2023-12-18T10:01:16.650Z,32.25
2023-12-18T10:03:44.095Z,31.85
2023-12-18T10:06:11.166Z,31.02
2023-12-18T10:08:38.584Z,32.17
2023-12-18T10:11:05.421Z,36.38
2023-12-18T10:13:32.210Z,36.35
2023-12-18T10:16:00.509Z,39.35
2023-12-18T10:18:27.583Z,41.00
2023-12-18T10:20:55.581Z,46.75
2023-12-18T10:23:22.623Z,31.45
2023-12-18T10:25:49.955Z,31.25
2023-12-18T10:28:18.195Z,31.40
2023-12-18T10:30:45.295Z,38.60
2023-12-18T10:33:13.412Z,36.03
2023-12-18T10:35:40.490Z,37.47
2023-12-18T10:38:07.844Z,42.10
2023-12-18T10:40:35.599Z,35.97
2023-12-18T10:43:41.931Z,29.58
2023-12-18T10:46:11.283Z,34.78
2023-12-18T10:48:38.738Z,32.92
2023-12-18T10:51:07.501Z,38.08
2023-12-18T10:53:36.727Z,32.72
2023-12-18T10:56:06.558Z,32.53
2023-12-18T10:58:35.809Z,35.35
2023-12-18T11:01:07.258Z,30.50
2023-12-18T11:03:38.048Z,28.17
2023-12-18T11:06:07.926Z,31.63
2023-12-18T11:08:35.050Z,38.22
2023-12-18T11:11:04.161Z,39.10
2023-12-18T11:13:52.238Z,42.17
2023-12-18T11:16:34.171Z,40.05
2023-12-18T11:19:16.370Z,39.85
2023-12-18T11:21:50.640Z,38.72
2023-12-18T11:24:20.918Z,38.67
2023-12-18T11:26:48.076Z,38.83
2023-12-18T11:29:36.901Z,38.08
2023-12-18T11:32:04.670Z,38.35
2023-12-18T11:34:32.303Z,45.40
2023-12-18T11:37:02.143Z,41.45
2023-12-18T11:39:40.622Z,39.90
2023-12-18T11:42:08.872Z,39.40
2023-12-18T11:44:37.021Z,36.33
2023-12-18T11:47:04.297Z,40.72
2023-12-18T11:49:32.605Z,47.40
2023-12-18T11:52:00.601Z,32.13
2023-12-18T11:54:27.861Z,30.98
2023-12-18T11:56:57.328Z,33.20
2023-12-18T11:59:25.907Z,34.22
2023-12-18T12:01:53.444Z,36.92
2023-12-18T12:04:21.168Z,32.25
2023-12-18T12:06:49.095Z,32.80
2023-12-18T12:09:16.979Z,39.78
2023-12-18T12:11:44.000Z,35.20
2023-12-18T12:14:10.908Z,41.60
2023-12-18T12:16:38.425Z,39.70
2023-12-18T12:19:07.536Z,40.80
2023-12-18T12:21:42.879Z,36.83
2023-12-18T12:24:15.992Z,40.92
2023-12-18T12:26:42.889Z,45.80
2023-12-18T12:29:12.024Z,32.15
2023-12-18T12:31:39.693Z,39.03
2023-12-18T12:34:06.958Z,46.15
2023-12-18T12:36:35.557Z,38.17
2023-12-18T12:39:06.065Z,34.72
2023-12-18T12:41:33.146Z,36.85
2023-12-18T12:44:00.128Z,34.65
2023-12-18T12:46:33.077Z,34.40
2023-12-18T12:49:04.232Z,39.22
2023-12-18T12:51:33.218Z,43.40
2023-12-18T12:54:00.145Z,42.85
2023-12-18T12:56:27.153Z,36.33
2023-12-18T12:58:53.973Z,37.97
2023-12-18T13:01:20.988Z,38.33
2023-12-18T13:03:49.870Z,36.75
2023-12-18T13:06:17.011Z,41.83
2023-12-18T13:08:44.653Z,37.83
2023-12-18T13:11:11.798Z,43.10
2023-12-18T13:13:38.833Z,37.03
2023-12-18T13:16:05.817Z,42.88
2023-12-18T13:18:32.718Z,42.92
2023-12-18T13:20:59.805Z,42.72
2023-12-18T13:23:26.537Z,41.95
2023-12-18T13:25:53.367Z,38.88
2023-12-18T13:28:20.404Z,40.58
2023-12-18T13:30:47.307Z,44.70
2023-12-18T13:33:14.499Z,41.28
2023-12-18T13:35:41.494Z,43.25
2023-12-18T13:38:08.971Z,39.35
2023-12-18T13:40:35.748Z,40.33
2023-12-18T13:43:02.773Z,36.45
2023-12-18T13:45:29.653Z,33.65
2023-12-18T13:47:57.965Z,36.03
2023-12-18T13:50:27.218Z,34.85
2023-12-18T13:52:54.402Z,36.45
2023-12-18T13:55:21.867Z,39.28
2023-12-18T13:57:49.651Z,38.30
2023-12-18T14:00:20.078Z,37.72
2023-12-18T14:02:48.298Z,33.10
2023-12-18T14:05:15.285Z,37.00
2023-12-18T14:07:42.381Z,41.95
2023-12-18T14:10:10.697Z,32.15
2023-12-18T14:12:38.338Z,36.10
2023-12-18T14:15:06.732Z,34.88
2023-12-18T14:17:34.385Z,37.63
2023-12-18T14:20:06.006Z,32.25
2023-12-18T14:22:33.758Z,31.42
2023-12-18T14:25:02.956Z,38.35
2023-12-18T14:27:30.505Z,41.97
2023-12-18T14:29:57.532Z,37.42
2023-12-18T14:32:24.461Z,37.80
2023-12-18T14:34:51.514Z,31.35
2023-12-18T14:37:19.250Z,44.13
2023-12-18T14:39:47.323Z,42.05
2023-12-18T14:42:14.765Z,33.33
2023-12-18T14:44:41.614Z,39.63
2023-12-18T14:47:08.796Z,36.42
2023-12-18T14:49:36.233Z,35.42
2023-12-18T14:52:03.769Z,38.80
2023-12-18T14:54:30.778Z,33.30
2023-12-18T14:56:57.699Z,34.50
2023-12-18T14:59:25.386Z,41.03
2023-12-18T15:01:53.610Z,42.60
2023-12-18T15:04:26.909Z,49.78
2023-12-18T15:06:57.120Z,35.92
2023-12-18T15:09:24.039Z,42.83
2023-12-18T15:11:50.932Z,41.25
2023-12-18T15:14:17.727Z,49.65
2023-12-18T15:16:44.590Z,46.50
2023-12-18T15:19:11.735Z,41.45
2023-12-18T15:21:40.339Z,50.55
2023-12-18T15:24:09.902Z,38.25
2023-12-18T15:26:38.057Z,43.08
2023-12-18T15:29:04.993Z,39.78
2023-12-18T15:31:31.996Z,45.78
2023-12-18T15:34:01.345Z,43.63
2023-12-18T15:36:29.788Z,44.17
2023-12-18T15:38:56.725Z,48.13
2023-12-18T15:41:23.555Z,51.90
2023-12-18T15:43:50.404Z,53.60
2023-12-18T15:46:17.423Z,60.85
2023-12-18T15:48:44.472Z,61.40
2023-12-18T15:51:11.470Z,56.97
2023-12-18T15:53:39.794Z,50.05
2023-12-18T15:56:07.316Z,52.38
2023-12-18T15:58:34.161Z,59.88
2023-12-18T16:01:01.283Z,60.60
2023-12-18T16:03:28.336Z,55.20
2023-12-18T16:05:56.816Z,53.70
2023-12-18T16:08:25.159Z,62.38
2023-12-18T16:10:52.698Z,58.53
2023-12-18T16:13:19.457Z,57.38
2023-12-18T16:15:46.421Z,51.05
2023-12-18T16:18:13.653Z,52.83
2023-12-18T16:20:40.658Z,43.55
2023-12-18T16:23:07.524Z,43.65
2023-12-18T16:25:34.298Z,51.15
2023-12-18T16:28:01.398Z,51.58
2023-12-18T16:30:31.097Z,46.00
2023-12-18T16:33:04.818Z,52.08
2023-12-18T16:35:31.979Z,55.95
2023-12-18T16:38:01.223Z,50.67
2023-12-18T16:40:28.251Z,48.88
2023-12-18T16:42:55.892Z,49.35
2023-12-18T16:45:22.853Z,60.42
2023-12-18T16:47:49.787Z,53.80
2023-12-18T16:50:16.815Z,48.58
2023-12-18T16:52:44.109Z,57.70
2023-12-18T16:55:13.508Z,69.25
2023-12-18T16:57:40.868Z,64.38
2023-12-18T17:00:12.892Z,67.07
2023-12-18T17:02:42.154Z,62.67
2023-12-18T17:05:09.699Z,62.25
2023-12-18T17:07:36.958Z,56.28
2023-12-18T17:10:04.485Z,60.55
2023-12-18T17:12:31.548Z,57.53
2023-12-18T17:14:58.414Z,63.13
2023-12-18T17:17:27.093Z,54.13
2023-12-18T17:19:54.206Z,55.60
2023-12-18T17:22:21.050Z,56.88
2023-12-18T17:24:48.145Z,52.28
2023-12-18T17:27:15.142Z,55.35
2023-12-18T17:29:42.641Z,58.08
2023-12-18T17:32:09.487Z,59.38
2023-12-18T17:34:54.484Z,93.18
2023-12-18T17:37:21.438Z,90.63
2023-12-18T17:39:49.435Z,82.20
2023-12-18T17:42:16.454Z,82.05
2023-12-18T17:44:44.118Z,65.32
2023-12-18T17:47:10.996Z,77.78
2023-12-18T17:49:38.822Z,68.35
2023-12-18T17:52:05.796Z,62.55
2023-12-18T17:54:33.015Z,58.13
2023-12-18T17:56:59.993Z,62.28
2023-12-18T17:59:28.651Z,59.45
2023-12-18T18:01:55.528Z,69.03
2023-12-18T18:04:22.726Z,60.90
2023-12-18T18:06:49.983Z,60.88
2023-12-18T18:09:16.902Z,64.18
2023-12-18T18:11:43.825Z,70.20
2023-12-18T18:14:10.734Z,74.30
2023-12-18T18:16:40.821Z,69.03
2023-12-18T18:19:09.846Z,76.45
2023-12-18T18:21:36.862Z,75.50
2023-12-18T18:24:03.989Z,75.40
2023-12-18T18:26:30.866Z,70.35
2023-12-18T18:28:57.809Z,76.50
2023-12-18T18:31:24.726Z,137.40
2023-12-18T18:33:51.730Z,108.95
2023-12-18T18:36:18.821Z,81.22
2023-12-18T18:38:45.652Z,66.05
2023-12-18T18:41:12.460Z,65.55
2023-12-18T18:43:39.772Z,68.00
2023-12-18T18:46:12.506Z,69.93
2023-12-18T18:48:41.603Z,69.15
2023-12-18T18:51:08.731Z,63.67
2023-12-18T18:53:36.052Z,52.50
2023-12-18T18:56:07.478Z,55.70
2023-12-18T18:58:37.749Z,59.72
2023-12-18T19:01:04.969Z,84.78
2023-12-18T19:03:32.102Z,143.98
2023-12-18T19:06:00.045Z,90.78
2023-12-18T19:08:27.144Z,52.60
2023-12-18T19:10:54.078Z,74.97
2023-12-18T19:13:22.678Z,66.57
2023-12-18T19:15:51.613Z,45.17
2023-12-18T19:18:19.896Z,55.47
2023-12-18T19:20:47.226Z,62.47
2023-12-18T19:23:14.238Z,78.35
2023-12-18T19:25:41.128Z,77.50
2023-12-18T19:28:08.711Z,87.70
2023-12-18T19:30:35.832Z,78.30
2023-12-18T19:33:02.940Z,78.13
2023-12-18T19:35:29.847Z,95.68
2023-12-18T19:37:57.482Z,125.03
2023-12-18T19:40:24.248Z,108.63
2023-12-18T19:42:51.407Z,86.63
2023-12-18T19:45:18.397Z,74.53
2023-12-18T19:47:45.807Z,66.55
2023-12-18T19:50:13.329Z,78.07
2023-12-18T19:52:40.554Z,66.38
2023-12-18T19:55:07.998Z,69.13
2023-12-18T19:57:37.323Z,64.10
2023-12-18T20:00:09.741Z,59.33
2023-12-18T20:02:36.674Z,64.63
2023-12-18T20:05:03.610Z,64.03
2023-12-18T20:07:30.541Z,52.03
2023-12-18T20:09:57.630Z,53.25
2023-12-18T20:12:25.071Z,58.30
2023-12-18T20:14:52.368Z,60.72
2023-12-18T20:17:19.426Z,66.80
2023-12-18T20:19:46.262Z,65.68
2023-12-18T20:22:13.138Z,61.47
2023-12-18T20:24:40.184Z,53.35
2023-12-18T20:27:07.091Z,56.88
2023-12-18T20:29:35.708Z,67.20
2023-12-18T20:32:02.710Z,58.78
2023-12-18T20:34:29.605Z,70.90
2023-12-18T20:36:56.457Z,51.97
2023-12-18T20:39:23.580Z,45.70
2023-12-18T20:41:50.501Z,52.88
2023-12-18T20:44:18.587Z,45.42
2023-12-18T20:46:45.875Z,44.47
2023-12-18T20:49:13.261Z,42.78
2023-12-18T20:51:43.689Z,50.55
2023-12-18T20:54:10.625Z,50.15
2023-12-18T20:56:40.466Z,50.03
2023-12-18T20:59:07.495Z,50.08
2023-12-18T21:01:34.496Z,44.67
2023-12-18T21:04:01.617Z,44.90
2023-12-18T21:06:31.503Z,42.65
2023-12-18T21:08:58.398Z,36.00
2023-12-18T21:11:25.198Z,37.65
2023-12-18T21:13:52.019Z,46.63
2023-12-18T21:16:18.860Z,63.55
2023-12-18T21:18:45.755Z,39.08
2023-12-18T21:21:16.059Z,41.60
2023-12-18T21:23:43.300Z,43.65
2023-12-18T21:26:12.547Z,46.25
2023-12-18T21:28:39.279Z,52.42
2023-12-18T21:31:06.320Z,54.55
2023-12-18T21:33:33.231Z,52.30
2023-12-18T21:36:00.209Z,42.05
2023-12-18T21:38:27.158Z,49.75
2023-12-18T21:40:54.086Z,48.25
2023-12-18T21:43:20.895Z,39.25
2023-12-18T21:45:47.827Z,38.03
2023-12-18T21:48:14.775Z,35.00
2023-12-18T21:50:41.846Z,38.88
2023-12-18T21:53:08.943Z,37.00
2023-12-18T21:55:37.670Z,39.13
2023-12-18T21:58:04.723Z,42.15
2023-12-18T22:00:31.845Z,39.58
2023-12-18T22:02:58.804Z,35.28
2023-12-18T22:05:25.677Z,42.40
2023-12-18T22:07:52.829Z,39.72
2023-12-18T22:10:20.363Z,47.92
2023-12-18T22:12:47.425Z,37.67
2023-12-18T22:15:14.803Z,43.75
2023-12-18T22:17:42.116Z,37.08
2023-12-18T22:20:12.182Z,43.72
2023-12-18T22:22:39.989Z,47.03
2023-12-18T22:25:07.398Z,42.33
2023-12-18T22:27:34.257Z,45.05
2023-12-18T22:30:01.240Z,40.15
2023-12-18T22:32:28.717Z,41.28
2023-12-18T22:34:55.714Z,36.92
2023-12-18T22:37:22.708Z,44.25
2023-12-18T22:39:49.476Z,45.35
2023-12-18T22:42:16.416Z,44.10
2023-12-18T22:44:43.629Z,43.70
2023-12-18T22:47:11.870Z,48.50
2023-12-18T22:49:38.778Z,44.60
2023-12-18T22:52:06.192Z,35.97
2023-12-18T22:54:33.090Z,42.22
2023-12-18T22:56:59.903Z,40.00
2023-12-18T22:59:26.855Z,47.05
2023-12-18T23:01:54.761Z,47.00
2023-12-18T23:04:21.760Z,48.10
2023-12-18T23:06:49.993Z,43.33
2023-12-18T23:09:17.059Z,53.13
2023-12-18T23:11:43.941Z,48.35
2023-12-18T23:14:10.797Z,42.05
2023-12-18T23:16:38.014Z,50.05
2023-12-18T23:19:04.925Z,37.45
2023-12-18T23:21:32.451Z,41.28
2023-12-18T23:24:01.852Z,55.15
2023-12-18T23:26:28.944Z,42.15
2023-12-18T23:28:57.304Z,45.15
2023-12-18T23:31:24.394Z,50.97
2023-12-18T23:33:51.635Z,50.13
2023-12-18T23:36:18.808Z,50.28
2023-12-18T23:38:45.707Z,50.15
2023-12-18T23:41:14.028Z,54.85
2023-12-18T23:43:40.944Z,47.42
2023-12-18T23:46:07.993Z,52.47
2023-12-18T23:48:34.935Z,49.83
2023-12-18T23:51:02.003Z,48.75
2023-12-18T23:53:28.904Z,57.50
2023-12-18T23:55:55.661Z,51.92
2023-12-18T23:58:22.708Z,48.58
